sensor_id;sensor_type;location;lat;lon;timestamp;P1;durP1;ratioP1;P2;durP2;ratioP2
7412;SDS011;3748;48.136;11.538;2023-01-09T00:01:38;7.63;;;5.73;;
7412;SDS011;3748;48.136;11.538;2023-01-09T00:04:07;5.67;;;5.07;;
7412;SDS011;3748;48.136;11.538;2023-01-09T00:06:34;6.20;;;5.60;;
7412;SDS011;3748;48.136;11.538;2023-01-09T00:09:02;6.13;;;5.10;;
7412;SDS011;3748;48.136;11.538;2023-01-09T00:11:29;7.07;;;5.20;;
7412;SDS011;3748;48.136;11.538;2023-01-09T00:13:56;6.90;;;5.57;;
7412;SDS011;3748;48.136;11.538;2023-01-09T00:16:22;6.60;;;5.30;;
7412;SDS011;3748;48.136;11.538;2023-01-09T00:18:50;7.10;;;5.83;;
7412;SDS011;3748;48.136;11.538;2023-01-09T00:21:17;6.30;;;4.93;;
7412;SDS011;3748;48.136;11.538;2023-01-09T00:23:45;6.17;;;4.47;;
7412;SDS011;3748;48.136;11.538;2023-01-09T00:26:14;8.27;;;4.90;;
7412;SDS011;3748;48.136;11.538;2023-01-09T00:28:42;8.67;;;5.47;;
7412;SDS011;3748;48.136;11.538;2023-01-09T00:31:09;11.20;;;5.13;;
7412;SDS011;3748;48.136;11.538;2023-01-09T00:33:37;6.60;;;5.90;;
7412;SDS011;3748;48.136;11.538;2023-01-09T00:36:06;8.33;;;5.27;;
7412;SDS011;3748;48.136;11.538;2023-01-09T00:38:34;8.00;;;5.53;;
7412;SDS011;3748;48.136;11.538;2023-01-09T00:41:01;5.50;;;4.87;;
7412;SDS011;3748;48.136;11.538;2023-01-09T00:43:32;7.00;;;5.00;;
7412;SDS011;3748;48.136;11.538;2023-01-09T00:46:00;5.43;;;4.90;;
7412;SDS011;3748;48.136;11.538;2023-01-09T00:48:30;6.93;;;6.13;;
7412;SDS011;3748;48.136;11.538;2023-01-09T00:50:58;7.70;;;5.50;;
7412;SDS011;3748;48.136;11.538;2023-01-09T00:53:27;7.60;;;5.57;;
7412;SDS011;3748;48.136;11.538;2023-01-09T00:55:56;7.70;;;6.10;;
7412;SDS011;3748;48.136;11.538;2023-01-09T00:58:26;5.90;;;4.47;;
7412;SDS011;3748;48.136;11.538;2023-01-09T01:00:54;5.93;;;5.33;;
7412;SDS011;3748;48.136;11.538;2023-01-09T01:03:21;5.60;;;4.80;;
7412;SDS011;3748;48.136;11.538;2023-01-09T01:05:48;7.93;;;5.53;;
7412;SDS011;3748;48.136;11.538;2023-01-09T01:08:32;7.03;;;5.20;;
7412;SDS011;3748;48.136;11.538;2023-01-09T01:11:02;5.53;;;4.93;;
7412;SDS011;3748;48.136;11.538;2023-01-09T01:13:29;5.40;;;4.80;;
7412;SDS011;3748;48.136;11.538;2023-01-09T01:15:58;6.27;;;4.60;;
7412;SDS011;3748;48.136;11.538;2023-01-09T01:18:24;6.10;;;4.33;;
7412;SDS011;3748;48.136;11.538;2023-01-09T01:20:51;5.57;;;4.70;;
7412;SDS011;3748;48.136;11.538;2023-01-09T01:23:18;7.70;;;6.00;;
7412;SDS011;3748;48.136;11.538;2023-01-09T01:25:45;7.93;;;5.10;;
7412;SDS011;3748;48.136;11.538;2023-01-09T01:28:11;7.07;;;5.03;;
7412;SDS011;3748;48.136;11.538;2023-01-09T01:30:38;6.67;;;4.93;;
7412;SDS011;3748;48.136;11.538;2023-01-09T01:33:08;7.23;;;5.67;;
7412;SDS011;3748;48.136;11.538;2023-01-09T01:35:36;7.90;;;5.27;;
7412;SDS011;3748;48.136;11.538;2023-01-09T01:38:03;14.00;;;5.57;;
7412;SDS011;3748;48.136;11.538;2023-01-09T01:40:30;9.77;;;4.73;;
7412;SDS011;3748;48.136;11.538;2023-01-09T01:42:58;4.60;;;4.20;;
7412;SDS011;3748;48.136;11.538;2023-01-09T01:45:25;7.00;;;6.07;;
7412;SDS011;3748;48.136;11.538;2023-01-09T01:47:55;9.03;;;4.77;;
7412;SDS011;3748;48.136;11.538;2023-01-09T01:50:30;7.30;;;5.03;;
7412;SDS011;3748;48.136;11.538;2023-01-09T01:53:02;5.70;;;4.40;;
7412;SDS011;3748;48.136;11.538;2023-01-09T01:55:32;6.80;;;5.50;;
7412;SDS011;3748;48.136;11.538;2023-01-09T01:58:03;5.50;;;4.37;;
7412;SDS011;3748;48.136;11.538;2023-01-09T02:00:34;6.47;;;5.80;;
7412;SDS011;3748;48.136;11.538;2023-01-09T02:03:03;4.30;;;4.00;;
7412;SDS011;3748;48.136;11.538;2023-01-09T02:05:33;7.77;;;4.80;;
7412;SDS011;3748;48.136;11.538;2023-01-09T02:08:03;5.43;;;4.70;;
7412;SDS011;3748;48.136;11.538;2023-01-09T02:10:31;6.43;;;4.70;;
7412;SDS011;3748;48.136;11.538;2023-01-09T02:12:58;7.60;;;4.67;;
7412;SDS011;3748;48.136;11.538;2023-01-09T02:15:26;4.97;;;4.47;;
7412;SDS011;3748;48.136;11.538;2023-01-09T02:18:04;5.53;;;4.83;;
7412;SDS011;3748;48.136;11.538;2023-01-09T02:23:44;5.10;;;4.57;;
7412;SDS011;3748;48.136;11.538;2023-01-09T02:26:34;6.00;;;5.50;;
7412;SDS011;3748;48.136;11.538;2023-01-09T02:29:26;5.47;;;4.27;;
7412;SDS011;3748;48.136;11.538;2023-01-09T02:32:16;6.27;;;4.70;;
7412;SDS011;3748;48.136;11.538;2023-01-09T02:34:53;4.33;;;3.87;;
7412;SDS011;3748;48.136;11.538;2023-01-09T02:37:33;6.37;;;4.30;;
7412;SDS011;3748;48.136;11.538;2023-01-09T02:40:08;7.00;;;4.10;;
7412;SDS011;3748;48.136;11.538;2023-01-09T02:42:44;6.40;;;4.37;;
7412;SDS011;3748;48.136;11.538;2023-01-09T02:45:12;5.00;;;4.50;;
7412;SDS011;3748;48.136;11.538;2023-01-09T02:47:41;5.73;;;4.00;;
7412;SDS011;3748;48.136;11.538;2023-01-09T02:50:10;4.70;;;3.77;;
7412;SDS011;3748;48.136;11.538;2023-01-09T02:52:55;5.23;;;3.83;;
7412;SDS011;3748;48.136;11.538;2023-01-09T02:55:52;3.60;;;3.30;;
7412;SDS011;3748;48.136;11.538;2023-01-09T02:58:36;3.97;;;3.57;;
7412;SDS011;3748;48.136;11.538;2023-01-09T03:01:18;4.43;;;3.83;;
7412;SDS011;3748;48.136;11.538;2023-01-09T03:03:55;3.67;;;3.37;;
7412;SDS011;3748;48.136;11.538;2023-01-09T03:06:29;4.37;;;3.70;;
7412;SDS011;3748;48.136;11.538;2023-01-09T03:09:03;5.60;;;3.70;;
7412;SDS011;3748;48.136;11.538;2023-01-09T03:11:34;5.17;;;4.07;;
7412;SDS011;3748;48.136;11.538;2023-01-09T03:14:07;8.10;;;6.30;;
7412;SDS011;3748;48.136;11.538;2023-01-09T03:16:37;4.87;;;3.90;;
7412;SDS011;3748;48.136;11.538;2023-01-09T03:19:06;5.43;;;4.10;;
7412;SDS011;3748;48.136;11.538;2023-01-09T03:21:37;5.73;;;3.60;;
7412;SDS011;3748;48.136;11.538;2023-01-09T03:24:06;7.03;;;3.90;;
7412;SDS011;3748;48.136;11.538;2023-01-09T03:26:33;8.07;;;5.20;;
7412;SDS011;3748;48.136;11.538;2023-01-09T03:29:00;5.43;;;3.90;;
7412;SDS011;3748;48.136;11.538;2023-01-09T03:31:27;4.20;;;3.80;;
7412;SDS011;3748;48.136;11.538;2023-01-09T03:33:54;5.20;;;4.20;;
7412;SDS011;3748;48.136;11.538;2023-01-09T03:36:22;6.97;;;4.80;;
7412;SDS011;3748;48.136;11.538;2023-01-09T03:38:49;5.53;;;5.03;;
7412;SDS011;3748;48.136;11.538;2023-01-09T03:41:16;4.40;;;4.00;;
7412;SDS011;3748;48.136;11.538;2023-01-09T03:43:44;4.77;;;4.30;;
7412;SDS011;3748;48.136;11.538;2023-01-09T03:46:12;7.30;;;4.87;;
7412;SDS011;3748;48.136;11.538;2023-01-09T03:48:39;5.03;;;4.53;;
7412;SDS011;3748;48.136;11.538;2023-01-09T03:51:06;5.53;;;3.70;;
7412;SDS011;3748;48.136;11.538;2023-01-09T03:53:34;5.40;;;3.80;;
7412;SDS011;3748;48.136;11.538;2023-01-09T03:56:01;5.93;;;5.33;;
7412;SDS011;3748;48.136;11.538;2023-01-09T03:58:28;5.90;;;4.50;;
7412;SDS011;3748;48.136;11.538;2023-01-09T04:00:58;5.73;;;4.60;;
7412;SDS011;3748;48.136;11.538;2023-01-09T04:03:26;5.83;;;4.60;;
7412;SDS011;3748;48.136;11.538;2023-01-09T04:05:52;5.03;;;3.90;;
7412;SDS011;3748;48.136;11.538;2023-01-09T04:08:20;4.10;;;3.40;;
7412;SDS011;3748;48.136;11.538;2023-01-09T04:10:48;8.00;;;3.90;;
7412;SDS011;3748;48.136;11.538;2023-01-09T04:13:15;3.23;;;2.60;;
7412;SDS011;3748;48.136;11.538;2023-01-09T04:15:42;4.07;;;2.30;;
7412;SDS011;3748;48.136;11.538;2023-01-09T04:18:09;3.30;;;3.00;;
7412;SDS011;3748;48.136;11.538;2023-01-09T04:20:36;3.70;;;3.23;;
7412;SDS011;3748;48.136;11.538;2023-01-09T04:23:03;3.00;;;2.70;;
7412;SDS011;3748;48.136;11.538;2023-01-09T04:25:29;2.57;;;2.37;;
7412;SDS011;3748;48.136;11.538;2023-01-09T04:27:58;2.40;;;2.20;;
7412;SDS011;3748;48.136;11.538;2023-01-09T04:30:24;2.57;;;2.37;;
7412;SDS011;3748;48.136;11.538;2023-01-09T04:32:51;1.90;;;1.70;;
7412;SDS011;3748;48.136;11.538;2023-01-09T04:35:18;3.50;;;1.60;;
7412;SDS011;3748;48.136;11.538;2023-01-09T04:37:45;2.33;;;1.70;;
7412;SDS011;3748;48.136;11.538;2023-01-09T04:40:12;4.90;;;2.80;;
7412;SDS011;3748;48.136;11.538;2023-01-09T04:42:42;2.07;;;1.23;;
7412;SDS011;3748;48.136;11.538;2023-01-09T04:45:11;2.53;;;1.47;;
7412;SDS011;3748;48.136;11.538;2023-01-09T04:47:39;1.73;;;1.00;;
7412;SDS011;3748;48.136;11.538;2023-01-09T04:50:06;2.90;;;1.10;;
7412;SDS011;3748;48.136;11.538;2023-01-09T04:52:34;1.30;;;1.20;;
7412;SDS011;3748;48.136;11.538;2023-01-09T04:55:01;1.50;;;1.20;;
7412;SDS011;3748;48.136;11.538;2023-01-09T04:57:29;1.20;;;1.10;;
7412;SDS011;3748;48.136;11.538;2023-01-09T04:59:56;1.50;;;1.40;;
7412;SDS011;3748;48.136;11.538;2023-01-09T05:02:24;1.57;;;1.30;;
7412;SDS011;3748;48.136;11.538;2023-01-09T05:04:51;1.07;;;0.97;;
7412;SDS011;3748;48.136;11.538;2023-01-09T05:07:17;1.10;;;1.00;;
7412;SDS011;3748;48.136;11.538;2023-01-09T05:09:44;1.40;;;1.10;;
7412;SDS011;3748;48.136;11.538;2023-01-09T05:12:11;1.10;;;0.80;;
7412;SDS011;3748;48.136;11.538;2023-01-09T05:14:38;1.30;;;0.80;;
7412;SDS011;3748;48.136;11.538;2023-01-09T05:17:04;0.80;;;0.70;;
7412;SDS011;3748;48.136;11.538;2023-01-09T05:19:33;1.03;;;0.80;;
7412;SDS011;3748;48.136;11.538;2023-01-09T05:21:59;1.00;;;0.73;;
7412;SDS011;3748;48.136;11.538;2023-01-09T05:24:26;1.00;;;0.70;;
7412;SDS011;3748;48.136;11.538;2023-01-09T05:26:53;1.07;;;0.77;;
7412;SDS011;3748;48.136;11.538;2023-01-09T05:29:20;1.20;;;0.70;;
7412;SDS011;3748;48.136;11.538;2023-01-09T05:31:47;0.70;;;0.60;;
7412;SDS011;3748;48.136;11.538;2023-01-09T05:34:13;0.90;;;0.80;;
7412;SDS011;3748;48.136;11.538;2023-01-09T05:36:42;0.90;;;0.77;;
7412;SDS011;3748;48.136;11.538;2023-01-09T05:39:08;0.90;;;0.73;;
7412;SDS011;3748;48.136;11.538;2023-01-09T05:41:35;1.00;;;0.80;;
7412;SDS011;3748;48.136;11.538;2023-01-09T05:44:02;0.80;;;0.70;;
7412;SDS011;3748;48.136;11.538;2023-01-09T05:46:29;0.70;;;0.60;;
7412;SDS011;3748;48.136;11.538;2023-01-09T05:48:56;0.80;;;0.67;;
7412;SDS011;3748;48.136;11.538;2023-01-09T05:51:23;0.80;;;0.80;;
7412;SDS011;3748;48.136;11.538;2023-01-09T05:53:51;0.80;;;0.70;;
7412;SDS011;3748;48.136;11.538;2023-01-09T05:56:18;0.90;;;0.70;;
7412;SDS011;3748;48.136;11.538;2023-01-09T05:58:45;1.10;;;0.70;;
7412;SDS011;3748;48.136;11.538;2023-01-09T06:01:12;0.80;;;0.60;;
7412;SDS011;3748;48.136;11.538;2023-01-09T06:03:39;1.10;;;0.70;;
7412;SDS011;3748;48.136;11.538;2023-01-09T06:06:06;0.90;;;0.70;;
7412;SDS011;3748;48.136;11.538;2023-01-09T06:08:33;2.20;;;0.90;;
7412;SDS011;3748;48.136;11.538;2023-01-09T06:11:01;1.67;;;0.70;;
7412;SDS011;3748;48.136;11.538;2023-01-09T06:13:28;0.90;;;0.70;;
7412;SDS011;3748;48.136;11.538;2023-01-09T06:15:55;1.03;;;0.70;;
7412;SDS011;3748;48.136;11.538;2023-01-09T06:18:21;0.90;;;0.70;;
7412;SDS011;3748;48.136;11.538;2023-01-09T06:20:48;0.90;;;0.70;;
7412;SDS011;3748;48.136;11.538;2023-01-09T06:23:15;0.90;;;0.70;;
7412;SDS011;3748;48.136;11.538;2023-01-09T06:25:42;0.80;;;0.63;;
7412;SDS011;3748;48.136;11.538;2023-01-09T06:28:10;0.80;;;0.70;;
7412;SDS011;3748;48.136;11.538;2023-01-09T06:30:37;1.03;;;0.60;;
7412;SDS011;3748;48.136;11.538;2023-01-09T06:33:03;0.80;;;0.70;;
7412;SDS011;3748;48.136;11.538;2023-01-09T06:35:30;0.80;;;0.60;;
7412;SDS011;3748;48.136;11.538;2023-01-09T06:37:57;1.00;;;0.70;;
7412;SDS011;3748;48.136;11.538;2023-01-09T06:40:25;0.90;;;0.77;;
7412;SDS011;3748;48.136;11.538;2023-01-09T06:42:52;0.80;;;0.63;;
7412;SDS011;3748;48.136;11.538;2023-01-09T06:45:20;0.97;;;0.80;;
7412;SDS011;3748;48.136;11.538;2023-01-09T06:47:47;0.70;;;0.60;;
7412;SDS011;3748;48.136;11.538;2023-01-09T06:50:15;0.80;;;0.70;;
7412;SDS011;3748;48.136;11.538;2023-01-09T06:52:42;0.90;;;0.70;;
7412;SDS011;3748;48.136;11.538;2023-01-09T06:55:09;0.80;;;0.70;;
7412;SDS011;3748;48.136;11.538;2023-01-09T06:57:36;0.70;;;0.60;;
7412;SDS011;3748;48.136;11.538;2023-01-09T07:00:03;0.80;;;0.60;;
7412;SDS011;3748;48.136;11.538;2023-01-09T07:02:31;0.80;;;0.60;;
7412;SDS011;3748;48.136;11.538;2023-01-09T07:04:58;1.00;;;0.77;;
7412;SDS011;3748;48.136;11.538;2023-01-09T07:07:25;0.90;;;0.70;;
7412;SDS011;3748;48.136;11.538;2023-01-09T07:09:52;1.33;;;0.80;;
7412;SDS011;3748;48.136;11.538;2023-01-09T07:12:19;0.90;;;0.63;;
7412;SDS011;3748;48.136;11.538;2023-01-09T07:14:46;0.80;;;0.60;;
7412;SDS011;3748;48.136;11.538;2023-01-09T07:17:12;0.93;;;0.70;;
7412;SDS011;3748;48.136;11.538;2023-01-09T07:19:40;0.80;;;0.70;;
7412;SDS011;3748;48.136;11.538;2023-01-09T07:22:07;0.90;;;0.60;;
7412;SDS011;3748;48.136;11.538;2023-01-09T07:24:35;0.80;;;0.70;;
7412;SDS011;3748;48.136;11.538;2023-01-09T07:27:02;0.80;;;0.80;;
7412;SDS011;3748;48.136;11.538;2023-01-09T07:29:29;0.83;;;0.80;;
7412;SDS011;3748;48.136;11.538;2023-01-09T07:31:56;0.90;;;0.70;;
7412;SDS011;3748;48.136;11.538;2023-01-09T07:34:23;1.20;;;0.70;;
7412;SDS011;3748;48.136;11.538;2023-01-09T07:36:51;0.70;;;0.60;;
7412;SDS011;3748;48.136;11.538;2023-01-09T07:39:18;0.80;;;0.60;;
7412;SDS011;3748;48.136;11.538;2023-01-09T07:41:45;0.80;;;0.70;;
7412;SDS011;3748;48.136;11.538;2023-01-09T07:44:12;0.80;;;0.60;;
7412;SDS011;3748;48.136;11.538;2023-01-09T07:46:39;0.77;;;0.67;;
7412;SDS011;3748;48.136;11.538;2023-01-09T07:49:06;1.30;;;0.70;;
7412;SDS011;3748;48.136;11.538;2023-01-09T07:51:33;1.37;;;0.67;;
7412;SDS011;3748;48.136;11.538;2023-01-09T07:54:04;0.80;;;0.60;;
7412;SDS011;3748;48.136;11.538;2023-01-09T07:56:31;0.80;;;0.77;;
7412;SDS011;3748;48.136;11.538;2023-01-09T07:58:58;0.80;;;0.80;;
7412;SDS011;3748;48.136;11.538;2023-01-09T08:01:25;1.00;;;0.70;;
7412;SDS011;3748;48.136;11.538;2023-01-09T08:03:52;1.20;;;1.00;;
7412;SDS011;3748;48.136;11.538;2023-01-09T08:06:19;1.77;;;0.90;;
7412;SDS011;3748;48.136;11.538;2023-01-09T08:08:46;0.80;;;0.73;;
7412;SDS011;3748;48.136;11.538;2023-01-09T08:11:15;0.90;;;0.80;;
7412;SDS011;3748;48.136;11.538;2023-01-09T08:13:42;0.87;;;0.70;;
7412;SDS011;3748;48.136;11.538;2023-01-09T08:16:08;1.07;;;0.80;;
7412;SDS011;3748;48.136;11.538;2023-01-09T08:18:35;0.90;;;0.80;;
7412;SDS011;3748;48.136;11.538;2023-01-09T08:21:02;0.80;;;0.80;;
7412;SDS011;3748;48.136;11.538;2023-01-09T08:23:29;1.10;;;0.80;;
7412;SDS011;3748;48.136;11.538;2023-01-09T08:25:56;0.90;;;0.80;;
7412;SDS011;3748;48.136;11.538;2023-01-09T08:28:24;1.00;;;0.90;;
7412;SDS011;3748;48.136;11.538;2023-01-09T08:30:51;1.00;;;0.80;;
7412;SDS011;3748;48.136;11.538;2023-01-09T08:33:18;0.90;;;0.70;;
7412;SDS011;3748;48.136;11.538;2023-01-09T08:35:45;2.20;;;0.90;;
7412;SDS011;3748;48.136;11.538;2023-01-09T08:38:12;1.20;;;0.83;;
7412;SDS011;3748;48.136;11.538;2023-01-09T08:40:39;0.90;;;0.80;;
7412;SDS011;3748;48.136;11.538;2023-01-09T08:43:06;0.90;;;0.80;;
7412;SDS011;3748;48.136;11.538;2023-01-09T08:45:52;1.07;;;0.83;;
7412;SDS011;3748;48.136;11.538;2023-01-09T08:48:39;1.73;;;0.70;;
7412;SDS011;3748;48.136;11.538;2023-01-09T08:51:06;0.80;;;0.80;;
7412;SDS011;3748;48.136;11.538;2023-01-09T08:53:33;1.20;;;0.90;;
7412;SDS011;3748;48.136;11.538;2023-01-09T08:56:00;0.90;;;0.73;;
7412;SDS011;3748;48.136;11.538;2023-01-09T08:58:28;2.93;;;1.07;;
7412;SDS011;3748;48.136;11.538;2023-01-09T09:00:56;1.13;;;0.87;;
7412;SDS011;3748;48.136;11.538;2023-01-09T09:03:23;1.00;;;0.73;;
7412;SDS011;3748;48.136;11.538;2023-01-09T09:05:50;3.40;;;1.67;;
7412;SDS011;3748;48.136;11.538;2023-01-09T09:08:17;2.47;;;0.93;;
7412;SDS011;3748;48.136;11.538;2023-01-09T09:10:45;1.80;;;0.87;;
7412;SDS011;3748;48.136;11.538;2023-01-09T09:18:24;1.67;;;1.30;;
7412;SDS011;3748;48.136;11.538;2023-01-09T09:20:51;1.00;;;0.73;;
7412;SDS011;3748;48.136;11.538;2023-01-09T09:23:18;0.80;;;0.67;;
7412;SDS011;3748;48.136;11.538;2023-01-09T09:25:46;1.57;;;0.73;;
7412;SDS011;3748;48.136;11.538;2023-01-09T09:28:13;1.93;;;0.90;;
7412;SDS011;3748;48.136;11.538;2023-01-09T09:30:40;1.00;;;0.80;;
7412;SDS011;3748;48.136;11.538;2023-01-09T09:33:07;2.23;;;1.00;;
7412;SDS011;3748;48.136;11.538;2023-01-09T09:35:36;2.90;;;0.90;;
7412;SDS011;3748;48.136;11.538;2023-01-09T09:38:03;2.07;;;1.00;;
7412;SDS011;3748;48.136;11.538;2023-01-09T09:40:37;0.93;;;0.83;;
7412;SDS011;3748;48.136;11.538;2023-01-09T09:46:39;1.37;;;0.90;;
7412;SDS011;3748;48.136;11.538;2023-01-09T09:49:12;1.37;;;1.00;;
7412;SDS011;3748;48.136;11.538;2023-01-09T09:51:47;3.43;;;0.90;;
7412;SDS011;3748;48.136;11.538;2023-01-09T09:54:23;1.93;;;0.90;;
7412;SDS011;3748;48.136;11.538;2023-01-09T09:56:55;1.93;;;1.00;;
7412;SDS011;3748;48.136;11.538;2023-01-09T09:59:24;1.30;;;0.80;;
7412;SDS011;3748;48.136;11.538;2023-01-09T10:01:54;2.03;;;0.93;;
7412;SDS011;3748;48.136;11.538;2023-01-09T10:04:25;1.70;;;0.93;;
7412;SDS011;3748;48.136;11.538;2023-01-09T10:06:55;1.63;;;1.30;;
7412;SDS011;3748;48.136;11.538;2023-01-09T10:09:28;1.20;;;0.83;;
7412;SDS011;3748;48.136;11.538;2023-01-09T10:12:09;0.90;;;0.80;;
7412;SDS011;3748;48.136;11.538;2023-01-09T10:14:52;3.10;;;1.10;;
7412;SDS011;3748;48.136;11.538;2023-01-09T10:17:27;1.03;;;0.90;;
7412;SDS011;3748;48.136;11.538;2023-01-09T10:23:19;0.90;;;0.80;;
7412;SDS011;3748;48.136;11.538;2023-01-09T10:25:59;4.17;;;1.07;;
7412;SDS011;3748;48.136;11.538;2023-01-09T10:28:36;2.40;;;0.90;;
7412;SDS011;3748;48.136;11.538;2023-01-09T10:31:16;1.67;;;0.90;;
7412;SDS011;3748;48.136;11.538;2023-01-09T10:33:51;2.10;;;1.00;;
7412;SDS011;3748;48.136;11.538;2023-01-09T10:36:32;1.97;;;0.80;;
7412;SDS011;3748;48.136;11.538;2023-01-09T10:39:21;2.23;;;0.97;;
7412;SDS011;3748;48.136;11.538;2023-01-09T10:41:53;4.77;;;0.90;;
7412;SDS011;3748;48.136;11.538;2023-01-09T10:44:24;2.90;;;1.20;;
7412;SDS011;3748;48.136;11.538;2023-01-09T10:46:58;1.87;;;0.83;;
7412;SDS011;3748;48.136;11.538;2023-01-09T10:49:26;1.93;;;1.30;;
7412;SDS011;3748;48.136;11.538;2023-01-09T10:51:56;2.43;;;1.20;;
7412;SDS011;3748;48.136;11.538;2023-01-09T10:54:32;2.60;;;1.00;;
7412;SDS011;3748;48.136;11.538;2023-01-09T10:57:01;1.80;;;1.70;;
7412;SDS011;3748;48.136;11.538;2023-01-09T10:59:35;1.20;;;0.90;;
7412;SDS011;3748;48.136;11.538;2023-01-09T11:02:02;2.50;;;1.10;;
7412;SDS011;3748;48.136;11.538;2023-01-09T11:04:30;1.17;;;0.80;;
7412;SDS011;3748;48.136;11.538;2023-01-09T11:07:01;3.93;;;1.00;;
7412;SDS011;3748;48.136;11.538;2023-01-09T11:12:22;3.40;;;1.57;;
7412;SDS011;3748;48.136;11.538;2023-01-09T11:14:50;3.93;;;1.33;;
7412;SDS011;3748;48.136;11.538;2023-01-09T11:17:18;3.70;;;1.10;;
7412;SDS011;3748;48.136;11.538;2023-01-09T11:19:59;2.43;;;1.10;;
7412;SDS011;3748;48.136;11.538;2023-01-09T11:22:27;1.70;;;1.60;;
7412;SDS011;3748;48.136;11.538;2023-01-09T11:24:59;1.30;;;0.90;;
7412;SDS011;3748;48.136;11.538;2023-01-09T11:27:27;1.47;;;0.90;;
7412;SDS011;3748;48.136;11.538;2023-01-09T11:32:52;2.97;;;1.47;;
7412;SDS011;3748;48.136;11.538;2023-01-09T11:35:23;2.13;;;1.00;;
7412;SDS011;3748;48.136;11.538;2023-01-09T11:38:02;2.07;;;0.70;;
7412;SDS011;3748;48.136;11.538;2023-01-09T11:40:34;1.57;;;1.07;;
7412;SDS011;3748;48.136;11.538;2023-01-09T11:43:13;1.70;;;0.90;;
7412;SDS011;3748;48.136;11.538;2023-01-09T11:45:44;2.80;;;1.17;;
7412;SDS011;3748;48.136;11.538;2023-01-09T11:48:18;2.67;;;1.20;;
7412;SDS011;3748;48.136;11.538;2023-01-09T11:50:54;3.20;;;1.00;;
7412;SDS011;3748;48.136;11.538;2023-01-09T11:55:57;1.30;;;1.00;;
7412;SDS011;3748;48.136;11.538;2023-01-09T11:58:27;1.77;;;0.93;;
7412;SDS011;3748;48.136;11.538;2023-01-09T12:01:02;2.00;;;1.67;;
7412;SDS011;3748;48.136;11.538;2023-01-09T12:03:42;0.80;;;0.70;;
7412;SDS011;3748;48.136;11.538;2023-01-09T12:06:30;1.27;;;1.00;;
7412;SDS011;3748;48.136;11.538;2023-01-09T12:09:06;2.43;;;1.10;;
7412;SDS011;3748;48.136;11.538;2023-01-09T12:11:39;2.13;;;1.20;;
7412;SDS011;3748;48.136;11.538;2023-01-09T12:14:18;2.73;;;1.43;;
7412;SDS011;3748;48.136;11.538;2023-01-09T12:17:01;3.77;;;1.17;;
7412;SDS011;3748;48.136;11.538;2023-01-09T12:19:47;2.83;;;1.00;;
7412;SDS011;3748;48.136;11.538;2023-01-09T12:22:26;2.80;;;1.10;;
7412;SDS011;3748;48.136;11.538;2023-01-09T12:28:10;1.43;;;1.20;;
7412;SDS011;3748;48.136;11.538;2023-01-09T12:30:56;1.47;;;0.80;;
7412;SDS011;3748;48.136;11.538;2023-01-09T12:33:31;1.30;;;0.80;;
7412;SDS011;3748;48.136;11.538;2023-01-09T12:36:08;4.13;;;1.10;;
7412;SDS011;3748;48.136;11.538;2023-01-09T12:38:46;1.30;;;1.03;;
7412;SDS011;3748;48.136;11.538;2023-01-09T12:41:16;2.00;;;1.00;;
7412;SDS011;3748;48.136;11.538;2023-01-09T12:43:55;0.80;;;0.80;;
7412;SDS011;3748;48.136;11.538;2023-01-09T12:46:41;1.20;;;0.90;;
7412;SDS011;3748;48.136;11.538;2023-01-09T12:49:22;2.57;;;1.00;;
7412;SDS011;3748;48.136;11.538;2023-01-09T12:51:55;1.40;;;1.20;;
7412;SDS011;3748;48.136;11.538;2023-01-09T12:54:30;1.63;;;0.90;;
7412;SDS011;3748;48.136;11.538;2023-01-09T12:57:03;1.10;;;0.80;;
7412;SDS011;3748;48.136;11.538;2023-01-09T12:59:35;4.50;;;1.10;;
7412;SDS011;3748;48.136;11.538;2023-01-09T13:02:11;3.00;;;0.90;;
7412;SDS011;3748;48.136;11.538;2023-01-09T13:04:47;1.10;;;1.00;;
7412;SDS011;3748;48.136;11.538;2023-01-09T13:07:20;3.60;;;1.23;;
7412;SDS011;3748;48.136;11.538;2023-01-09T13:09:52;2.17;;;0.97;;
7412;SDS011;3748;48.136;11.538;2023-01-09T13:12:22;1.90;;;1.00;;
7412;SDS011;3748;48.136;11.538;2023-01-09T13:14:53;3.43;;;1.17;;
7412;SDS011;3748;48.136;11.538;2023-01-09T13:17:25;1.53;;;1.10;;
7412;SDS011;3748;48.136;11.538;2023-01-09T13:19:55;4.40;;;1.00;;
7412;SDS011;3748;48.136;11.538;2023-01-09T13:22:22;1.63;;;1.10;;
7412;SDS011;3748;48.136;11.538;2023-01-09T13:25:14;2.50;;;1.13;;
7412;SDS011;3748;48.136;11.538;2023-01-09T13:28:06;1.50;;;1.20;;
7412;SDS011;3748;48.136;11.538;2023-01-09T13:33:50;5.40;;;1.13;;
7412;SDS011;3748;48.136;11.538;2023-01-09T13:36:21;1.20;;;1.00;;
7412;SDS011;3748;48.136;11.538;2023-01-09T13:38:50;1.40;;;1.20;;
7412;SDS011;3748;48.136;11.538;2023-01-09T13:41:19;1.27;;;1.17;;
7412;SDS011;3748;48.136;11.538;2023-01-09T13:44:04;6.00;;;1.33;;
7412;SDS011;3748;48.136;11.538;2023-01-09T13:46:44;11.60;;;1.77;;
7412;SDS011;3748;48.136;11.538;2023-01-09T13:49:32;4.90;;;1.40;;
7412;SDS011;3748;48.136;11.538;2023-01-09T13:52:28;1.30;;;0.87;;
7412;SDS011;3748;48.136;11.538;2023-01-09T13:58:18;1.83;;;1.10;;
7412;SDS011;3748;48.136;11.538;2023-01-09T14:00:53;3.93;;;1.03;;
7412;SDS011;3748;48.136;11.538;2023-01-09T14:03:23;1.07;;;0.73;;
7412;SDS011;3748;48.136;11.538;2023-01-09T14:06:03;1.30;;;0.90;;
7412;SDS011;3748;48.136;11.538;2023-01-09T14:09:05;2.80;;;1.00;;
7412;SDS011;3748;48.136;11.538;2023-01-09T14:11:43;0.90;;;0.80;;
7412;SDS011;3748;48.136;11.538;2023-01-09T14:16:58;2.30;;;1.07;;
7412;SDS011;3748;48.136;11.538;2023-01-09T14:19:33;2.43;;;1.50;;
7412;SDS011;3748;48.136;11.538;2023-01-09T14:22:04;1.10;;;1.00;;
7412;SDS011;3748;48.136;11.538;2023-01-09T14:24:32;1.63;;;1.00;;
7412;SDS011;3748;48.136;11.538;2023-01-09T14:27:08;0.90;;;0.80;;
7412;SDS011;3748;48.136;11.538;2023-01-09T14:30:16;1.93;;;0.80;;
7412;SDS011;3748;48.136;11.538;2023-01-09T14:32:54;2.93;;;1.00;;
7412;SDS011;3748;48.136;11.538;2023-01-09T14:35:24;1.13;;;0.90;;
7412;SDS011;3748;48.136;11.538;2023-01-09T14:38:02;2.40;;;1.00;;
7412;SDS011;3748;48.136;11.538;2023-01-09T14:40:37;5.70;;;1.07;;
7412;SDS011;3748;48.136;11.538;2023-01-09T14:43:11;1.30;;;0.90;;
7412;SDS011;3748;48.136;11.538;2023-01-09T14:45:44;1.20;;;1.10;;
7412;SDS011;3748;48.136;11.538;2023-01-09T14:48:14;1.43;;;1.10;;
7412;SDS011;3748;48.136;11.538;2023-01-09T14:50:42;1.20;;;1.10;;
7412;SDS011;3748;48.136;11.538;2023-01-09T14:53:17;1.73;;;1.23;;
7412;SDS011;3748;48.136;11.538;2023-01-09T14:55:48;2.50;;;2.00;;
7412;SDS011;3748;48.136;11.538;2023-01-09T14:58:22;1.07;;;0.90;;
7412;SDS011;3748;48.136;11.538;2023-01-09T15:00:57;1.03;;;0.93;;
7412;SDS011;3748;48.136;11.538;2023-01-09T15:03:28;2.80;;;1.20;;
7412;SDS011;3748;48.136;11.538;2023-01-09T15:06:01;1.50;;;1.00;;
7412;SDS011;3748;48.136;11.538;2023-01-09T15:08:30;2.93;;;1.20;;
7412;SDS011;3748;48.136;11.538;2023-01-09T15:10:58;1.13;;;0.80;;
7412;SDS011;3748;48.136;11.538;2023-01-09T15:13:30;1.47;;;1.00;;
7412;SDS011;3748;48.136;11.538;2023-01-09T15:15:59;3.60;;;0.90;;
7412;SDS011;3748;48.136;11.538;2023-01-09T15:18:35;1.87;;;1.30;;
7412;SDS011;3748;48.136;11.538;2023-01-09T15:21:11;1.83;;;1.07;;
7412;SDS011;3748;48.136;11.538;2023-01-09T15:23:44;2.13;;;1.00;;
7412;SDS011;3748;48.136;11.538;2023-01-09T15:26:11;2.10;;;1.00;;
7412;SDS011;3748;48.136;11.538;2023-01-09T15:28:40;1.43;;;0.93;;
7412;SDS011;3748;48.136;11.538;2023-01-09T15:31:10;2.60;;;1.20;;
7412;SDS011;3748;48.136;11.538;2023-01-09T15:33:41;1.97;;;1.30;;
7412;SDS011;3748;48.136;11.538;2023-01-09T15:36:11;2.53;;;1.10;;
7412;SDS011;3748;48.136;11.538;2023-01-09T15:38:40;1.20;;;0.97;;
7412;SDS011;3748;48.136;11.538;2023-01-09T15:41:11;2.30;;;1.10;;
7412;SDS011;3748;48.136;11.538;2023-01-09T15:44:02;3.23;;;1.10;;
7412;SDS011;3748;48.136;11.538;2023-01-09T15:46:30;2.07;;;1.00;;
7412;SDS011;3748;48.136;11.538;2023-01-09T15:48:57;1.30;;;0.87;;
7412;SDS011;3748;48.136;11.538;2023-01-09T15:51:24;1.20;;;1.00;;
7412;SDS011;3748;48.136;11.538;2023-01-09T15:53:52;1.87;;;0.80;;
7412;SDS011;3748;48.136;11.538;2023-01-09T15:56:23;2.07;;;1.00;;
7412;SDS011;3748;48.136;11.538;2023-01-09T15:58:54;1.47;;;0.87;;